Time;durP1;ratioP1;P1;durP2;ratioP2;P2;SDS_P1;SDS_P2;PMS_P1;PMS_P2;Temp;Humidity;BMP_temperature;BMP_pressure;BME280_temperature;BME280_humidity;BME280_pressure;Samples;Min_cycle;Max_cycle;Signal;HPM_P1;HPM_P2
2022/08/24 00:02:16;;;;;;;7.25;2.78;;;;;;;25.37;51.75;101604.56;5071639;27;98345;-71
2022/08/24 00:04:47;;;;;;;6.72;2.67;;;;;;;25.23;52.39;101604.84;5072783;27;97641;-71
2022/08/24 00:07:14;;;;;;;6.72;1.90;;;;;;;25.13;52.25;101603.91;5069177;27;99080;-71
2022/08/24 00:09:41;;;;;;;8.40;2.00;;;;;;;25.26;52.13;101599.19;5064763;27;99179;-71
2022/08/24 00:12:07;;;;;;;4.53;2.08;;;;;;;25.05;52.51;101600.97;5068079;27;98097;-71
2022/08/24 00:14:35;;;;;;;7.40;2.90;;;;;;;25.11;52.67;101606.75;5065531;27;96866;-71
2022/08/24 00:17:06;;;;;;;7.95;2.47;;;;;;;25.14;52.63;101617.28;5071976;27;99312;-71
2022/08/24 00:19:36;;;;;;;5.45;2.40;;;;;;;25.11;52.86;101614.00;5069698;27;98732;-71
2022/08/24 00:22:02;;;;;;;5.13;2.50;;;;;;;25.07;52.68;101615.25;5071123;27;97466;-71
2022/08/24 00:24:29;;;;;;;5.97;2.35;;;;;;;25.11;52.64;101611.28;5066161;27;96903;-71
2022/08/24 00:26:56;;;;;;;5.40;2.47;;;;;;;24.94;53.31;101616.22;5073138;27;98965;-71
2022/08/24 00:29:23;;;;;;;5.60;2.80;;;;;;;25.06;53.04;101608.97;5068495;27;98959;-71
2022/08/24 00:31:51;;;;;;;7.15;2.10;;;;;;;24.83;53.64;101609.94;5069234;27;97451;-71
2022/08/24 00:34:17;;;;;;;7.43;2.63;;;;;;;24.99;53.00;101613.16;5068006;27;97047;-72
2022/08/24 00:36:44;;;;;;;9.57;2.50;;;;;;;24.87;53.54;101611.44;5066767;27;98954;-71
2022/08/24 00:39:10;;;;;;;10.88;2.83;;;;;;;24.92;53.37;101612.81;5070290;27;98971;-71
2022/08/24 00:41:42;;;;;;;7.65;2.22;;;;;;;24.92;53.69;101607.41;5071656;27;98008;-71
2022/08/24 00:44:09;;;;;;;4.82;2.17;;;;;;;24.93;53.27;101611.84;5071392;27;96968;-71
2022/08/24 00:46:43;;;;;;;6.53;2.20;;;;;;;24.88;53.83;101614.00;5061186;27;99377;-71
2022/08/24 00:49:28;;;;;;;6.28;2.65;;;;;;;24.84;53.58;101617.94;5068312;27;99118;-72
2022/08/24 00:52:02;;;;;;;18.70;2.65;;;;;;;24.87;53.60;101614.16;5070264;27;97197;-71
2022/08/24 00:54:31;;;;;;;5.63;2.30;;;;;;;24.81;53.94;101615.47;5067395;27;97113;-71
2022/08/24 00:57:04;;;;;;;9.75;2.65;;;;;;;24.87;53.74;101620.41;5065121;27;99260;-71
2022/08/24 00:59:34;;;;;;;7.78;2.78;;;;;;;24.85;54.23;101616.97;5070166;27;99153;-71
2022/08/24 01:02:05;;;;;;;5.60;2.45;;;;;;;24.73;54.27;101617.97;5068223;27;96803;-72
2022/08/24 01:04:41;;;;;;;5.28;2.47;;;;;;;24.80;54.12;101618.34;5068713;27;97293;-72
2022/08/24 01:07:08;;;;;;;6.97;2.47;;;;;;;24.68;54.69;101617.47;5065125;27;99324;-71
2022/08/24 01:09:36;;;;;;;9.27;2.88;;;;;;;24.65;54.71;101604.22;5072503;27;100139;-71
2022/08/24 01:12:03;;;;;;;5.00;2.30;;;;;;;24.76;54.64;101606.88;5065157;27;96794;-72
2022/08/24 01:14:30;;;;;;;4.20;2.60;;;;;;;24.65;55.14;101615.03;5072875;27;96985;-72
2022/08/24 01:19:45;;;;;;;7.05;2.85;;;;;;;24.71;55.03;101605.56;5065248;27;97112;-71
2022/08/24 01:22:27;;;;;;;7.93;3.22;;;;;;;24.47;55.58;101600.31;5064604;27;96845;-71
2022/08/24 01:24:56;;;;;;;6.80;2.72;;;;;;;24.55;55.47;101605.91;5067213;27;96885;-71
2022/08/24 01:27:23;;;;;;;6.22;2.50;;;;;;;24.63;55.32;101611.56;5069937;27;99610;-71
2022/08/24 01:29:50;;;;;;;9.00;2.80;;;;;;;24.56;55.57;101611.22;5064521;27;99586;-71
2022/08/24 01:32:19;;;;;;;5.32;2.60;;;;;;;24.51;55.69;101612.56;5064234;27;96793;-71
2022/08/24 01:34:45;;;;;;;6.28;2.80;;;;;;;24.63;55.39;101609.72;5063550;27;96834;-71
2022/08/24 01:37:11;;;;;;;8.57;2.92;;;;;;;24.58;55.76;101611.09;5062889;27;98993;-71
2022/08/24 01:39:42;;;;;;;7.22;2.75;;;;;;;24.63;55.71;101622.38;5066723;27;98125;-71
2022/08/24 01:42:10;;;;;;;9.00;3.30;;;;;;;24.58;55.77;101620.06;5072589;27;96712;-71
2022/08/24 01:44:40;;;;;;;10.32;3.45;;;;;;;24.59;55.87;101629.03;5064161;27;97707;-72
2022/08/24 01:47:08;;;;;;;8.32;3.45;;;;;;;24.59;55.68;101626.31;5067695;27;98882;-72
2022/08/24 01:49:37;;;;;;;7.85;3.05;;;;;;;24.49;56.25;101630.72;5068305;27;99062;-72
2022/08/24 01:52:05;;;;;;;6.05;3.00;;;;;;;24.54;56.16;101629.41;5066547;27;96816;-72
2022/08/24 01:54:32;;;;;;;10.07;3.38;;;;;;;24.46;56.31;101626.44;5070632;27;96936;-71
2022/08/24 01:56:59;;;;;;;7.32;3.63;;;;;;;24.42;56.60;101621.41;5071316;27;99499;-72
2022/08/24 01:59:27;;;;;;;12.82;3.50;;;;;;;24.35;56.65;101620.19;5066642;27;99292;-71
2022/08/24 02:01:58;;;;;;;9.55;3.35;;;;;;;24.29;57.32;101628.75;5069257;27;98547;-72
2022/08/24 02:04:24;;;;;;;11.18;3.85;;;;;;;24.37;56.98;101632.56;5068471;27;97086;-72
2022/08/24 02:06:51;;;;;;;11.80;4.25;;;;;;;24.41;57.04;101633.22;5071897;27;99015;-72
2022/08/24 02:09:18;;;;;;;8.88;4.18;;;;;;;24.42;57.04;101635.75;5069356;27;101405;-72
2022/08/24 02:11:44;;;;;;;9.80;4.20;;;;;;;24.65;56.47;101642.03;5070768;27;98944;-72
2022/08/24 02:14:11;;;;;;;7.57;4.22;;;;;;;24.72;56.07;101635.16;5067869;27;99025;-71
2022/08/24 02:16:38;;;;;;;8.43;3.72;;;;;;;24.66;56.16;101635.66;5070201;27;99733;-71
2022/08/24 02:19:05;;;;;;;12.63;4.90;;;;;;;24.79;55.93;101640.94;5064686;27;97777;-71
2022/08/24 02:21:31;;;;;;;11.13;5.25;;;;;;;24.88;56.08;101634.75;5063584;27;97706;-71
2022/08/24 02:23:58;;;;;;;11.35;6.72;;;;;;;24.76;56.35;101639.31;5063343;27;97266;-72
2022/08/24 02:26:24;;;;;;;14.77;7.88;;;;;;;24.78;56.66;101631.97;5067141;27;98967;-71
2022/08/24 02:28:51;;;;;;;16.35;7.47;;;;;;;24.59;57.56;101631.72;5063603;27;99286;-72
2022/08/24 02:31:17;;;;;;;13.60;8.35;;;;;;;24.72;57.01;101629.75;5066034;27;97973;-71
2022/08/24 02:33:45;;;;;;;19.50;7.65;;;;;;;24.58;57.64;101628.16;5067289;27;99016;-72
2022/08/24 02:36:13;;;;;;;15.32;8.77;;;;;;;24.80;57.09;101630.00;5064897;27;98816;-72
2022/08/24 02:38:40;;;;;;;16.40;9.00;;;;;;;24.91;56.87;101640.81;5068447;27;98952;-73
2022/08/24 02:41:09;;;;;;;19.90;10.45;;;;;;;24.96;56.81;101630.47;5067722;27;96841;-72
2022/08/24 02:43:35;;;;;;;18.05;9.60;;;;;;;24.94;57.20;101631.63;5069320;27;97348;-73
2022/08/24 02:46:02;;;;;;;19.45;9.98;;;;;;;24.92;57.19;101626.31;5062051;27;99293;-73
2022/08/24 02:48:30;;;;;;;19.35;9.60;;;;;;;24.83;57.41;101629.72;5071740;27;99441;-72
2022/08/24 02:50:58;;;;;;;23.20;11.63;;;;;;;25.02;57.35;101626.41;5069367;27;97863;-72
2022/08/24 02:53:25;;;;;;;21.83;11.63;;;;;;;24.91;57.78;101623.75;5070219;27;96794;-72
2022/08/24 02:55:51;;;;;;;21.98;12.02;;;;;;;24.95;57.69;101626.06;5069537;27;101360;-71
2022/08/24 02:58:18;;;;;;;21.90;12.07;;;;;;;24.76;58.17;101623.09;5062182;27;98834;-72
2022/08/24 03:00:46;;;;;;;19.40;12.02;;;;;;;24.90;57.45;101622.03;5063484;27;96841;-71
2022/08/24 03:03:13;;;;;;;23.17;11.73;;;;;;;24.80;57.69;101621.91;5067287;27;96913;-71
2022/08/24 03:05:40;;;;;;;21.27;11.68;;;;;;;24.57;58.72;101612.06;5068057;27;98898;-71
2022/08/24 03:08:08;;;;;;;20.98;11.50;;;;;;;24.77;58.35;101622.13;5065228;27;96779;-70
2022/08/24 03:10:37;;;;;;;17.20;11.43;;;;;;;24.74;58.13;101614.28;5069491;27;97276;-72
2022/08/24 03:13:03;;;;;;;23.65;12.85;;;;;;;24.40;58.90;101609.88;5062658;27;96935;-72
2022/08/24 03:15:30;;;;;;;21.77;12.70;;;;;;;24.58;58.49;101614.66;5065707;27;99007;-72
2022/08/24 03:17:57;;;;;;;23.20;12.73;;;;;;;24.38;59.26;101611.81;5063425;27;98917;-72
2022/08/24 03:20:26;;;;;;;18.65;11.57;;;;;;;24.28;60.04;101618.97;5066373;27;101212;-72
2022/08/24 03:22:52;;;;;;;20.10;13.02;;;;;;;23.94;60.97;101623.41;5065076;27;97023;-73
2022/08/24 03:25:23;;;;;;;17.38;11.88;;;;;;;23.97;61.00;101624.00;5067507;27;99080;-71
2022/08/24 03:27:49;;;;;;;22.42;12.32;;;;;;;23.92;61.24;101620.81;5064701;27;98853;-72
2022/08/24 03:30:16;;;;;;;20.58;12.63;;;;;;;23.82;61.75;101626.09;5067872;27;97130;-72
2022/08/24 03:32:45;;;;;;;17.83;11.95;;;;;;;23.90;61.46;101630.00;5073438;27;96755;-71
2022/08/24 03:35:16;;;;;;;23.38;12.02;;;;;;;23.85;61.89;101635.75;5059327;27;99041;-72
2022/08/24 03:37:42;;;;;;;24.42;12.88;;;;;;;23.95;61.23;101627.81;5062460;27;97908;-71
2022/08/24 03:40:11;;;;;;;18.90;11.73;;;;;;;23.94;61.10;101624.28;5072986;27;97517;-71
2022/08/24 03:42:42;;;;;;;19.88;11.80;;;;;;;23.88;61.36;101624.75;5064250;27;97129;-71
2022/08/24 03:45:09;;;;;;;21.88;11.88;;;;;;;23.81;61.33;101623.50;5067362;27;99190;-71
2022/08/24 03:47:36;;;;;;;22.58;12.60;;;;;;;23.95;60.92;101627.81;5069664;27;99210;-73
2022/08/24 03:50:03;;;;;;;21.20;11.60;;;;;;;24.06;60.36;101626.00;5071250;27;96888;-73
2022/08/24 03:52:32;;;;;;;18.38;11.48;;;;;;;24.09;60.37;101628.44;5071500;27;96853;-73
2022/08/24 03:54:58;;;;;;;20.50;11.93;;;;;;;24.27;59.82;101633.44;5072021;27;99101;-72
2022/08/24 03:57:25;;;;;;;20.17;12.20;;;;;;;24.18;59.95;101632.28;5070000;27;99246;-72
2022/08/24 04:00:00;;;;;;;23.27;11.48;;;;;;;24.26;59.40;101632.56;5070879;27;98057;-71
2022/08/24 04:02:27;;;;;;;19.35;11.50;;;;;;;24.34;59.02;101637.38;5073399;27;96978;-72
2022/08/24 04:04:53;;;;;;;16.08;10.52;;;;;;;24.23;59.49;101636.38;5070249;27;98125;-72
2022/08/24 04:07:20;;;;;;;19.25;10.60;;;;;;;24.12;59.72;101644.44;5072326;27;98808;-72
2022/08/24 04:09:46;;;;;;;19.70;11.02;;;;;;;23.96;60.10;101646.59;5073074;27;98580;-72
2022/08/24 04:12:13;;;;;;;20.05;10.68;;;;;;;23.92;60.52;101644.25;5069394;27;96935;-71
2022/08/24 04:14:42;;;;;;;19.38;10.65;;;;;;;23.88;60.77;101640.06;5069723;27;101909;-72
2022/08/24 04:17:11;;;;;;;17.95;11.13;;;;;;;23.70;61.27;101645.88;5068859;27;100223;-72
2022/08/24 04:19:56;;;;;;;19.25;11.38;;;;;;;23.57;61.56;101652.34;5069214;27;96778;-72
2022/08/24 04:22:26;;;;;;;17.00;10.63;;;;;;;23.52;61.80;101655.38;5065432;27;96710;-71
2022/08/24 04:24:52;;;;;;;15.75;10.73;;;;;;;23.64;61.81;101657.16;5069889;27;97691;-71
2022/08/24 04:27:19;;;;;;;20.13;11.00;;;;;;;23.49;62.20;101663.72;5072022;27;99141;-72
2022/08/24 04:29:45;;;;;;;15.48;10.00;;;;;;;23.55;61.73;101662.41;5069479;27;96836;-71
2022/08/24 04:32:17;;;;;;;18.20;10.32;;;;;;;23.52;62.15;101654.53;5070427;27;96792;-71
2022/08/24 04:34:43;;;;;;;16.42;10.45;;;;;;;23.62;61.35;101660.97;5070689;27;99404;-72
2022/08/24 04:37:14;;;;;;;15.55;9.95;;;;;;;23.54;61.96;101661.53;5068265;27;98975;-71
2022/08/24 04:39:41;;;;;;;23.40;10.50;;;;;;;23.61;61.54;101661.94;5067612;27;96900;-72
2022/08/24 04:42:08;;;;;;;120.40;14.10;;;;;;;23.50;61.90;101659.19;5072466;27;97337;-72
2022/08/24 04:44:34;;;;;;;233.57;21.85;;;;;;;23.62;61.54;101667.22;5071184;27;99883;-72
2022/08/24 04:47:01;;;;;;;150.35;15.57;;;;;;;23.69;61.27;101663.09;5067017;27;99434;-72
2022/08/24 04:49:32;;;;;;;454.75;29.92;;;;;;;23.86;60.61;101672.56;5073351;27;96887;-72
2022/08/24 04:51:59;;;;;;;47.85;10.32;;;;;;;24.03;59.89;101661.31;5067102;27;97177;-72
2022/08/24 04:54:26;;;;;;;29.98;9.68;;;;;;;24.22;59.15;101658.09;5067290;27;99019;-73
2022/08/24 04:56:52;;;;;;;24.10;9.75;;;;;;;24.17;58.33;101668.34;5067774;27;98998;-72
2022/08/24 04:59:19;;;;;;;21.17;8.57;;;;;;;24.06;58.37;101676.44;5069708;27;96794;-71
2022/08/24 05:01:48;;;;;;;30.50;9.25;;;;;;;24.40;57.47;101672.00;5066141;27;96845;-72
2022/08/24 05:04:15;;;;;;;19.50;8.48;;;;;;;24.25;57.86;101674.06;5071955;27;99431;-71
2022/08/24 05:06:43;;;;;;;14.55;7.55;;;;;;;24.11;58.04;101668.84;5070378;27;99006;-71
2022/08/24 05:09:10;;;;;;;15.77;7.07;;;;;;;24.43;57.21;101669.91;5070581;27;97046;-73
2022/08/24 05:11:39;;;;;;;20.33;7.22;;;;;;;24.54;56.51;101683.44;5070754;27;96982;-72
2022/08/24 05:14:06;;;;;;;14.02;6.57;;;;;;;24.59;55.85;101683.94;5069445;27;100862;-72
2022/08/24 05:16:36;;;;;;;18.10;8.07;;;;;;;24.59;56.04;101692.03;5068690;27;98871;-72
2022/08/24 05:19:03;;;;;;;16.48;7.10;;;;;;;24.49;56.02;101692.88;5071810;27;97131;-72
2022/08/24 05:21:32;;;;;;;19.33;8.90;;;;;;;24.47;56.43;101701.13;5072216;27;96887;-72
2022/08/24 05:24:00;;;;;;;16.63;7.30;;;;;;;24.52;55.97;101701.59;5069339;27;98946;-72
2022/08/24 05:26:28;;;;;;;19.55;7.78;;;;;;;24.57;55.76;101701.22;5069993;27;98779;-71
2022/08/24 05:28:56;;;;;;;11.98;6.68;;;;;;;24.63;55.97;101706.16;5070680;27;96909;-72
2022/08/24 05:31:26;;;;;;;20.02;8.02;;;;;;;24.63;55.86;101708.84;5071701;27;96796;-72
2022/08/24 05:33:55;;;;;;;15.40;7.95;;;;;;;24.72;55.56;101713.53;5069180;27;98939;-72
2022/08/24 05:36:23;;;;;;;12.15;7.00;;;;;;;24.86;55.09;101704.34;5070727;27;99357;-72
2022/08/24 05:38:51;;;;;;;12.80;6.28;;;;;;;24.89;54.74;101709.47;5069320;27;97603;-72
2022/08/24 05:41:20;;;;;;;13.98;6.95;;;;;;;24.59;55.39;101704.69;5070488;27;96920;-72
2022/08/24 05:43:47;;;;;;;14.10;6.70;;;;;;;24.84;55.00;101711.69;5064080;27;99235;-71
2022/08/24 05:46:16;;;;;;;15.63;6.60;;;;;;;25.11;54.16;101708.63;5070312;27;101087;-73
2022/08/24 05:48:42;;;;;;;16.65;7.20;;;;;;;25.20;53.98;101706.06;5064811;27;96793;-71
2022/08/24 05:51:12;;;;;;;10.82;6.95;;;;;;;24.88;54.38;101708.59;5072855;27;96852;-71
2022/08/24 05:53:40;;;;;;;22.15;7.57;;;;;;;24.55;55.47;101708.59;5066354;27;101041;-72
2022/08/24 05:56:09;;;;;;;15.45;7.93;;;;;;;24.51;55.78;101709.81;5071178;27;97662;-71
2022/08/24 05:58:38;;;;;;;18.80;7.57;;;;;;;24.52;56.07;101706.16;5066457;27;98659;-72
2022/08/24 06:01:09;;;;;;;18.02;9.15;;;;;;;24.68;55.47;101717.44;5065963;27;98446;-71
2022/08/24 06:03:38;;;;;;;17.98;8.82;;;;;;;25.02;54.92;101719.22;5066164;27;98272;-71
2022/08/24 06:06:07;;;;;;;18.25;9.15;;;;;;;25.10;54.48;101720.44;5067812;27;99026;-70
2022/08/24 06:08:35;;;;;;;16.75;9.55;;;;;;;25.45;53.98;101717.56;5062968;27;98966;-71
2022/08/24 06:11:01;;;;;;;16.77;9.38;;;;;;;25.54;53.26;101716.78;5070430;27;96933;-71
2022/08/24 06:13:28;;;;;;;17.80;9.90;;;;;;;25.74;53.11;101714.16;5069864;27;101387;-71
2022/08/24 06:16:06;;;;;;;13.80;9.10;;;;;;;25.68;53.38;101716.53;5066085;27;98543;-71
2022/08/24 06:18:35;;;;;;;14.70;9.50;;;;;;;25.83;52.72;101717.94;5066126;27;97096;-72
2022/08/24 06:21:05;;;;;;;22.60;10.13;;;;;;;25.94;52.50;101725.16;5066348;27;96812;-72
2022/08/24 06:23:31;;;;;;;16.55;10.23;;;;;;;25.94;52.80;101717.03;5067848;27;98950;-74
2022/08/24 06:28:47;;;;;;;19.13;9.88;;;;;;;25.33;55.14;101722.13;5064506;27;97459;-77
2022/08/24 06:31:16;;;;;;;18.42;12.02;;;;;;;25.52;54.44;101730.47;5061097;27;97162;-71
2022/08/24 06:33:42;;;;;;;18.08;10.90;;;;;;;25.99;53.23;101722.94;5060642;27;98906;-71
2022/08/24 06:36:09;;;;;;;16.92;11.18;;;;;;;26.10;52.61;101728.28;5063866;27;99177;-72
2022/08/24 06:38:38;;;;;;;17.83;10.88;;;;;;;26.20;52.66;101729.22;5062549;27;97321;-71
2022/08/24 06:41:05;;;;;;;21.23;11.23;;;;;;;26.18;52.35;101737.50;5063118;27;96877;-72
2022/08/24 06:43:33;;;;;;;21.50;11.48;;;;;;;26.40;51.80;101733.81;5063171;27;97943;-71
2022/08/24 06:46:06;;;;;;;18.73;10.32;;;;;;;26.44;51.29;101734.41;5065466;27;99534;-71
2022/08/24 06:48:35;;;;;;;16.35;9.55;;;;;;;26.29;51.57;101742.00;5067095;27;96977;-70
2022/08/24 06:51:07;;;;;;;21.13;10.32;;;;;;;26.62;51.13;101740.94;5067183;27;97305;-70
2022/08/24 06:53:35;;;;;;;23.77;13.25;;;;;;;26.59;51.09;101744.75;5064773;27;99003;-71
2022/08/24 06:56:01;;;;;;;28.05;12.02;;;;;;;26.62;51.25;101753.63;5060209;27;97748;-71
2022/08/24 06:58:31;;;;;;;23.83;12.55;;;;;;;26.76;50.74;101751.44;5061528;27;97501;-72
2022/08/24 07:01:07;;;;;;;26.55;13.75;;;;;;;26.73;50.76;101750.81;5067558;27;97197;-71
2022/08/24 07:03:34;;;;;;;28.75;14.15;;;;;;;26.78;50.83;101748.59;5069384;27;98990;-70
2022/08/24 07:06:03;;;;;;;25.92;13.75;;;;;;;26.84;50.91;101748.06;5065148;27;99035;-70
2022/08/24 07:08:30;;;;;;;26.27;12.77;;;;;;;26.95;50.84;101758.84;5067564;27;97361;-71
2022/08/24 07:10:58;;;;;;;30.80;14.63;;;;;;;26.94;50.79;101759.81;5064115;27;97269;-71
2022/08/24 07:13:25;;;;;;;24.05;14.15;;;;;;;27.08;50.33;101756.75;5069742;27;99336;-71
2022/08/24 07:15:52;;;;;;;25.70;15.40;;;;;;;26.98;50.57;101761.25;5066141;27;99137;-71
2022/08/24 07:18:19;;;;;;;24.02;14.70;;;;;;;26.99;50.64;101760.25;5066914;27;97120;-71
2022/08/24 07:20:50;;;;;;;26.38;13.30;;;;;;;27.12;50.46;101758.19;5066545;27;97070;-71
2022/08/24 07:23:19;;;;;;;31.38;13.57;;;;;;;27.24;50.19;101750.81;5066915;27;99280;-71
2022/08/24 07:25:46;;;;;;;21.13;13.02;;;;;;;27.12;50.25;101752.75;5069671;27;98824;-70
2022/08/24 07:28:14;;;;;;;21.40;12.75;;;;;;;27.21;50.34;101757.38;5067633;27;97855;-71
2022/08/24 07:30:45;;;;;;;21.08;13.02;;;;;;;26.77;51.14;101758.56;5065681;27;96989;-71
2022/08/24 07:33:12;;;;;;;25.30;12.75;;;;;;;26.12;53.00;101761.53;5069465;27;99366;-70
2022/08/24 07:35:39;;;;;;;16.08;10.40;;;;;;;26.72;52.00;101771.66;5067960;27;99262;-72
2022/08/24 07:38:07;;;;;;;18.48;9.20;;;;;;;27.17;50.79;101763.22;5071211;27;98708;-71
2022/08/24 07:40:34;;;;;;;18.50;9.57;;;;;;;26.80;51.55;101771.00;5072043;27;96824;-71
2022/08/24 07:43:02;;;;;;;23.83;12.38;;;;;;;26.97;51.23;101762.28;5067755;27;99079;-71
2022/08/24 07:45:29;;;;;;;19.65;10.70;;;;;;;27.22;50.50;101769.94;5070331;27;99153;-72
2022/08/24 07:47:57;;;;;;;21.33;11.13;;;;;;;27.23;50.45;101771.66;5059180;27;96911;-70
2022/08/24 07:50:24;;;;;;;18.92;10.65;;;;;;;27.33;50.00;101769.81;5069590;27;96818;-70
2022/08/24 07:52:52;;;;;;;20.17;11.77;;;;;;;27.43;50.02;101777.16;5068899;27;97691;-70
2022/08/24 07:55:20;;;;;;;19.00;11.15;;;;;;;27.78;49.28;101769.38;5065126;27;98835;-70
2022/08/24 07:57:48;;;;;;;24.02;11.73;;;;;;;27.97;48.79;101776.69;5065489;27;97180;-70
2022/08/24 08:00:18;;;;;;;17.88;10.50;;;;;;;27.77;49.26;101770.38;5066392;27;97182;-70
2022/08/24 08:02:45;;;;;;;21.70;11.82;;;;;;;28.11;48.54;101773.53;5055160;27;99065;-71
2022/08/24 08:05:16;;;;;;;19.55;11.52;;;;;;;28.19;48.41;101781.00;5064019;27;100910;-71
2022/08/24 08:07:44;;;;;;;18.45;11.15;;;;;;;28.22;48.35;101776.16;5066710;27;97436;-71
2022/08/24 08:10:13;;;;;;;22.55;10.88;;;;;;;28.31;47.95;101786.16;5065633;27;97750;-71
2022/08/24 08:12:48;;;;;;;18.83;11.30;;;;;;;28.34;47.91;101791.31;5065895;27;99084;-71
2022/08/24 08:15:14;;;;;;;17.83;10.63;;;;;;;28.23;48.05;101786.00;5068046;27;97413;-71
2022/08/24 08:17:49;;;;;;;21.23;10.82;;;;;;;27.77;49.31;101782.09;5069884;27;98762;-71
2022/08/24 08:20:15;;;;;;;20.15;11.27;;;;;;;28.04;49.05;101778.69;5063819;27;98257;-70
2022/08/24 08:25:26;;;;;;;22.45;12.32;;;;;;;28.50;48.09;101779.84;5067193;27;98544;-71
2022/08/24 08:27:54;;;;;;;22.15;11.07;;;;;;;28.44;48.01;101777.69;5069983;27;96986;-71
2022/08/24 08:30:23;;;;;;;20.08;11.55;;;;;;;28.70;47.59;101783.38;5060280;27;97751;-71
2022/08/24 08:32:50;;;;;;;18.58;11.27;;;;;;;28.95;46.75;101784.66;5066666;27;101148;-72
2022/08/24 08:35:19;;;;;;;19.05;11.00;;;;;;;28.84;46.86;101781.06;5064660;27;99280;-71
2022/08/24 08:37:48;;;;;;;21.52;11.93;;;;;;;28.87;46.82;101779.94;5061992;27;97477;-71
2022/08/24 08:40:30;;;;;;;16.88;10.30;;;;;;;28.86;46.84;101775.50;5067904;27;97191;-71
2022/08/24 08:43:07;;;;;;;18.83;10.95;;;;;;;28.90;46.76;101785.94;5062812;27;98922;-70
2022/08/24 08:45:38;;;;;;;;;;;;;;;28.74;46.76;101782.97;5064343;27;99461;-70
2022/08/24 08:48:33;;;;;;;21.58;9.65;;;;;;;28.74;47.09;101780.25;5061835;27;101371;-71
2022/08/24 08:51:33;;;;;;;16.83;10.65;;;;;;;28.44;47.91;101788.56;5064724;27;97198;-71
2022/08/24 08:54:16;;;;;;;19.58;10.95;;;;;;;29.07;46.60;101792.47;5066923;27;99029;-70
2022/08/24 08:56:56;;;;;;;15.75;8.93;;;;;;;29.48;45.39;101784.84;5066924;27;99111;-71
2022/08/24 08:59:49;;;;;;;13.88;9.07;;;;;;;29.27;45.93;101799.56;5060663;27;97231;-70
2022/08/24 09:02:37;;;;;;;14.23;9.20;;;;;;;29.36;45.13;101792.34;5064102;27;98689;-70
2022/08/24 09:05:35;;;;;;;16.75;9.25;;;;;;;29.52;45.28;101797.16;5056396;27;99019;-70
2022/08/24 09:08:11;;;;;;;15.23;8.90;;;;;;;29.32;45.79;101801.81;5067522;27;97973;-72
2022/08/24 09:10:56;;;;;;;19.40;9.60;;;;;;;29.54;45.06;101790.53;5063447;27;96924;-71
2022/08/24 09:14:02;;;;;;;19.92;9.73;;;;;;;29.55;44.94;101800.41;5064028;27;98933;-72
2022/08/24 09:16:52;;;;;;;14.90;9.38;;;;;;;29.65;44.66;101793.06;5066239;27;99458;-70
2022/08/24 09:19:41;;;;;;;17.20;9.82;;;;;;;29.77;44.53;101790.97;5067386;27;99349;-71
2022/08/24 09:22:13;;;;;;;17.17;9.52;;;;;;;30.19;43.18;101799.44;5055718;27;97511;-70
2022/08/24 09:25:19;;;;;;;18.67;9.85;;;;;;;29.89;43.65;101797.91;5065054;27;97042;-71
2022/08/24 09:28:00;;;;;;;22.77;10.85;;;;;;;30.07;43.53;101797.94;5051008;27;98205;-70
2022/08/24 09:30:40;;;;;;;22.10;11.38;;;;;;;30.16;43.24;101799.75;5058360;27;99269;-70
2022/08/24 09:33:19;;;;;;;16.88;9.80;;;;;;;30.24;43.22;101797.09;5069636;27;97843;-70
2022/08/24 09:36:06;;;;;;;17.05;10.02;;;;;;;30.14;43.30;101804.47;5065977;27;97580;-71
2022/08/24 09:38:56;;;;;;;15.95;9.77;;;;;;;29.75;44.76;101794.84;5060053;27;99002;-71
2022/08/24 09:41:50;;;;;;;18.88;9.88;;;;;;;30.11;43.49;101802.09;5064352;27;98884;-71
2022/08/24 09:44:37;;;;;;;16.50;8.85;;;;;;;30.35;42.86;101796.84;5065517;27;97098;-71
2022/08/24 09:47:19;;;;;;;;;;;;;;;30.21;42.69;101796.53;5069625;27;96924;-71
2022/08/24 09:50:26;;;;;;;16.85;9.07;;;;;;;30.38;42.63;101790.22;5068659;27;99141;-71
2022/08/24 09:53:27;;;;;;;16.42;8.27;;;;;;;30.57;42.17;101791.94;5066840;27;98745;-71
2022/08/24 09:56:24;;;;;;;15.70;9.13;;;;;;;30.72;42.06;101793.91;5027610;27;96874;-71
2022/08/24 09:58:59;;;;;;;;;;;;;;;30.56;42.26;101790.22;4977202;27;97449;-71
2022/08/24 10:01:37;;;;;;;15.25;9.55;;;;;;;30.89;41.53;101794.88;5066388;27;99162;-71
2022/08/24 10:04:20;;;;;;;19.30;10.98;;;;;;;30.85;41.51;101796.22;5061096;27;98872;-70
2022/08/24 10:07:05;;;;;;;16.98;9.75;;;;;;;30.56;42.65;101795.66;5059105;27;97618;-71
2022/08/24 10:09:55;;;;;;;22.67;10.80;;;;;;;30.63;42.22;101794.88;5057581;27;98196;-71
2022/08/24 10:12:45;;;;;;;23.92;10.88;;;;;;;31.01;41.63;101792.72;5067327;27;99754;-71
2022/08/24 10:15:19;;;;;;;17.02;10.65;;;;;;;31.14;41.59;101794.03;5064722;27;98196;-71
2022/08/24 10:18:02;;;;;;;22.30;10.38;;;;;;;30.99;41.15;101786.56;5063531;27;97401;-70
2022/08/24 10:20:49;;;;;;;19.33;11.55;;;;;;;30.59;41.99;101784.47;5062329;27;96853;-72
2022/08/24 10:23:40;;;;;;;17.83;10.82;;;;;;;30.79;42.00;101780.47;5066100;27;99758;-71
2022/08/24 10:26:17;;;;;;;19.38;10.80;;;;;;;30.69;41.99;101779.75;5060707;27;98883;-71
2022/08/24 10:29:02;;;;;;;19.13;10.73;;;;;;;30.66;42.27;101782.78;5062077;27;96858;-72
2022/08/24 10:31:46;;;;;;;20.95;11.98;;;;;;;30.70;42.12;101782.31;5064048;27;97019;-71
2022/08/24 10:34:32;;;;;;;17.42;10.70;;;;;;;31.04;41.87;101776.91;5071043;27;98875;-69
2022/08/24 10:37:20;;;;;;;14.85;10.23;;;;;;;31.16;41.47;101781.06;5072670;27;99027;-69
2022/08/24 10:40:24;;;;;;;20.60;11.27;;;;;;;31.21;41.26;101778.69;5068201;27;97431;-70
2022/08/24 10:46:13;;;;;;;15.13;10.10;;;;;;;31.12;41.46;101771.47;5066634;27;97225;-69
2022/08/24 10:49:16;;;;;;;17.92;11.35;;;;;;;31.36;40.64;101773.47;5064722;27;98783;-70
2022/08/24 10:52:03;;;;;;;17.63;11.18;;;;;;;30.90;41.26;101774.75;5062346;27;97323;-69
2022/08/24 10:54:40;;;;;;;19.42;11.35;;;;;;;30.43;42.28;101769.66;5070436;27;97939;-69
2022/08/24 10:57:24;;;;;;;15.68;10.15;;;;;;;29.98;42.84;101766.19;5065913;27;98921;-69
2022/08/24 11:00:03;;;;;;;13.80;8.43;;;;;;;29.62;44.30;101767.97;5069131;27;99203;-69
2022/08/24 11:02:32;;;;;;;13.73;8.80;;;;;;;29.77;44.45;101761.00;5071561;27;97063;-69
2022/08/24 11:05:06;;;;;;;16.88;9.23;;;;;;;30.13;43.18;101763.78;5067070;27;97297;-71
2022/08/24 11:07:38;;;;;;;18.23;9.15;;;;;;;30.35;43.28;101772.28;5073438;27;99182;-70
2022/08/24 11:10:09;;;;;;;17.85;9.63;;;;;;;30.15;43.05;101764.44;5067999;27;98720;-70
2022/08/24 11:12:40;;;;;;;12.80;7.95;;;;;;;30.52;42.18;101767.88;5070926;27;97506;-70
2022/08/24 11:15:22;;;;;;;14.00;8.85;;;;;;;30.16;43.04;101766.16;5068311;27;97298;-70
2022/08/24 11:17:54;;;;;;;13.93;9.15;;;;;;;30.18;42.93;101765.00;5071031;27;99083;-70
2022/08/24 11:20:28;;;;;;;15.27;9.80;;;;;;;29.97;43.58;101759.03;5063458;27;98920;-69
2022/08/24 11:23:03;;;;;;;16.13;10.10;;;;;;;30.04;43.76;101757.38;5069213;27;96896;-69
2022/08/24 11:25:35;;;;;;;17.08;9.52;;;;;;;29.97;43.96;101759.03;5064668;27;96758;-69
2022/08/24 11:28:20;;;;;;;17.38;9.30;;;;;;;30.08;43.58;101764.22;5070464;27;98291;-69
2022/08/24 11:30:48;;;;;;;12.95;9.27;;;;;;;30.08;43.47;101758.78;5067072;27;98832;-69
2022/08/24 11:33:26;;;;;;;15.50;8.80;;;;;;;29.81;43.91;101745.19;5072156;27;96896;-70
2022/08/24 11:35:53;;;;;;;16.73;8.48;;;;;;;30.26;43.45;101745.97;5063203;27;97339;-69
2022/08/24 11:38:22;;;;;;;19.98;10.15;;;;;;;30.45;42.79;101755.84;5064280;27;99478;-70
2022/08/24 11:40:51;;;;;;;22.08;9.48;;;;;;;30.61;42.46;101755.13;5068618;27;102604;-69
2022/08/24 11:43:35;;;;;;;16.30;8.38;;;;;;;30.69;41.82;101752.47;5064604;27;97311;-69
2022/08/24 11:46:22;;;;;;;15.88;9.20;;;;;;;30.82;41.26;101748.28;5065659;27;96854;-69
2022/08/24 11:49:10;;;;;;;18.58;8.90;;;;;;;30.99;41.00;101737.44;5069462;27;99259;-69